MDT,Max TemperatureF,Mean TemperatureF,Min TemperatureF,Max Dew PointF,MeanDew PointF,Min DewpointF,Max Humidity, Mean Humidity, Min Humidity, Max Sea Level PressureIn, Mean Sea Level PressureIn, Min Sea Level PressureIn, Max VisibilityMiles, Mean VisibilityMiles, Min VisibilityMiles, Max Wind SpeedMPH, Mean Wind SpeedMPH, Max Gust SpeedMPH,PrecipitationIn, CloudCover, Events, WindDirDegrees
2012-9-1,80,66,51,52,47,43,88,61,28,30.36,30.24,30.15,10,10,10,28,9,41,0.07,2,Thunderstorm,156
2012-9-2,75,63,51,52,47,43,94,61,31,30.34,30.28,30.21,10,10,5,16,8,23,0.10,3,Thunderstorm,112
2012-9-3,78,64,51,48,42,36,82,51,21,30.35,30.28,30.23,10,10,10,24,10,38,0.00,1,Thunderstorm,164
2012-9-4,80,64,48,39,31,19,66,35,10,30.29,30.24,30.17,10,10,10,28,11,36,0.00,0,,189
2012-9-5,78,61,44,30,25,19,49,27,12,30.31,30.24,30.16,10,10,10,18,7,28,0.00,0,,109
2012-9-6,78,62,46,36,28,23,40,27,15,30.23,30.18,30.11,10,10,5,21,9,38,0.00,2,,172
2012-9-7,73,62,51,39,33,27,54,36,19,30.40,30.31,30.22,10,10,5,20,9,25,0.00,2,,297
2012-9-8,75,58,42,30,23,14,57,30,11,30.45,30.38,30.30,10,10,10,17,8,,0.00,0,,145
2012-9-9,82,63,44,30,25,16,39,24,13,30.37,30.27,30.17,10,10,8,18,9,25,0.00,0,,187
2012-9-10,80,64,48,37,32,27,48,32,18,30.23,30.17,30.09,10,10,10,16,10,23,0.00,1,,186
2012-9-11,66,58,50,54,45,30,100,69,30,30.19,30.15,30.10,10,10,7,14,8,,0.01,4,,131
2012-9-12,68,57,46,50,41,23,100,64,18,30.36,30.26,30.18,10,10,9,15,6,18,0.01,1,,205
2012-9-13,71,53,35,34,28,21,81,44,17,30.54,30.46,30.37,10,10,10,9,5,,0.00,0,,204
2012-9-14,77,59,41,28,24,19,53,31,12,30.51,30.43,30.34,10,10,10,20,9,16,0.00,0,,162
2012-9-15,78,60,42,27,20,10,49,26,10,30.40,30.34,30.24,10,10,10,20,10,25,0.00,0,,179
2012-9-16,78,60,41,30,20,16,39,22,11,30.30,30.23,30.13,10,10,10,17,9,29,0.00,1,,116
2012-9-17,69,58,46,34,29,21,58,34,18,30.25,30.20,30.17,10,10,10,22,8,28,0.00,1,,351
2012-9-18,71,54,37,27,25,21,60,34,16,30.36,30.29,30.22,10,10,9,16,8,22,0.00,0,,171
2012-9-19,73,56,39,27,22,19,56,29,13,30.35,30.30,30.25,10,10,10,13,7,18,0.00,0,,133
2012-9-20,75,57,39,27,22,19,49,28,13,30.32,30.28,30.23,10,10,9,14,9,18,0.00,0,,140
2012-9-21,75,58,41,27,23,19,49,28,13,30.35,30.28,30.23,10,10,8,13,8,18,0.00,0,,188
2012-9-22,78,61,44,27,22,18,46,25,11,30.33,30.28,30.22,10,10,10,17,10,22,0.00,0,,115
2012-9-23,78,62,46,36,25,19,37,26,15,30.31,30.26,30.21,10,10,9,18,12,30,0.00,1,,198
2012-9-24,71,61,51,45,40,34,72,50,27,30.27,30.17,30.08,10,10,10,26,8,31,0.04,3,Thunderstorm,119
2012-9-25,62,53,44,46,40,36,93,67,42,30.15,30.10,30.05,10,10,5,15,7,22,0.16,4,,168
2012-9-26,60,53,46,46,44,39,93,78,45,30.24,30.17,30.12,10,10,6,12,4,,0.02,7,,92
2012-9-27,60,51,42,45,42,39,93,73,45,30.29,30.27,30.24,10,10,10,12,4,,0.00,5,,305
2012-9-28,68,54,41,39,35,27,87,58,21,30.31,30.25,30.16,10,10,2,15,8,,0.00,0,,150
2012-9-29,69,54,39,37,34,27,76,50,20,30.30,30.25,30.21,10,10,10,25,9,33,0.00,1,,145
2012-9-30,69,54,39,37,34,28,81,50,21,30.37,30.30,30.25,10,10,10,17,5,28,0.00,2,,221